Time,TemperatureF,DewpointF,PressureIn,WindDirection,WindDirectionDegrees,WindSpeedMPH,WindSpeedGustMPH,Humidity,HourlyPrecipIn,Conditions,Clouds,dailyrainin,SoftwareType,DateUTC
2013-09-11 00:02:00,80.4,63.3,28.57,East,90,3.0,5.0,56,0.00,,,0.00,meteohub,2013-09-11 05:02:00,
2013-09-11 00:07:00,80.2,63.1,28.56,SE,135,2.0,5.0,56,0.00,,,0.00,meteohub,2013-09-11 05:07:00,
2013-09-11 00:12:00,80.1,63.5,28.56,East,90,4.0,8.0,57,0.00,,,0.00,meteohub,2013-09-11 05:12:00,
2013-09-11 00:17:00,80.1,63.5,28.57,SE,135,2.0,8.0,57,0.00,,,0.00,meteohub,2013-09-11 05:17:00,
2013-09-11 00:22:00,79.9,63.3,28.57,NE,45,5.0,7.0,57,0.00,,,0.00,meteohub,2013-09-11 05:22:00,
2013-09-11 00:27:00,79.5,63.5,28.57,SE,135,3.0,7.0,58,0.00,,,0.00,meteohub,2013-09-11 05:27:00,
2013-09-11 00:32:00,79.7,63.7,28.57,East,90,4.0,8.0,58,0.00,,,0.00,meteohub,2013-09-11 05:32:00,
2013-09-11 00:37:00,79.9,64.2,28.57,West,270,5.0,8.0,59,0.00,,,0.00,meteohub,2013-09-11 05:37:00,
2013-09-11 00:42:00,79.5,63.9,28.57,SE,135,1.0,8.0,59,0.00,,,0.00,meteohub,2013-09-11 05:42:00,
2013-09-11 00:47:00,79.5,64.4,28.57,East,90,3.0,5.0,60,0.00,,,0.00,meteohub,2013-09-11 05:47:00,
2013-09-11 00:52:00,79.5,64.4,28.57,South,180,2.0,5.0,60,0.00,,,0.00,meteohub,2013-09-11 05:52:00,
2013-09-11 00:57:00,79.5,64.4,28.57,NE,45,1.0,6.0,60,0.00,,,0.00,meteohub,2013-09-11 05:57:00,
2013-09-11 01:02:00,79.0,64.4,28.57,SE,135,6.0,6.0,61,0.00,,,0.00,meteohub,2013-09-11 06:02:00,
2013-09-11 01:07:00,79.2,64.6,28.57,East,90,4.0,8.0,61,0.00,,,0.00,meteohub,2013-09-11 06:07:00,
2013-09-11 01:12:00,79.2,64.6,28.57,NE,45,3.0,8.0,61,0.00,,,0.00,meteohub,2013-09-11 06:12:00,
2013-09-11 01:17:00,78.8,64.8,28.57,SE,135,1.0,6.0,62,0.00,,,0.00,meteohub,2013-09-11 06:17:00,
2013-09-11 01:22:00,78.4,64.4,28.57,East,90,2.0,5.0,62,0.00,,,0.00,meteohub,2013-09-11 06:22:00,
2013-09-11 01:28:00,78.4,64.8,28.58,SE,135,5.0,5.0,63,0.00,,,0.00,meteohub,2013-09-11 06:28:00,
2013-09-11 01:33:00,78.3,64.6,28.58,NE,45,1.0,5.0,63,0.00,,,0.00,meteohub,2013-09-11 06:33:00,
2013-09-11 01:38:00,78.1,64.9,28.58,East,90,1.0,5.0,64,0.00,,,0.00,meteohub,2013-09-11 06:38:00,
2013-09-11 01:43:00,77.9,64.8,28.58,East,90,1.0,5.0,64,0.00,,,0.00,meteohub,2013-09-11 06:43:00,
2013-09-11 01:48:00,77.9,64.8,28.58,East,90,1.0,1.0,64,0.00,,,0.00,meteohub,2013-09-11 06:48:00,
2013-09-11 01:53:00,77.7,64.9,28.58,East,90,1.0,1.0,65,0.00,,,0.00,meteohub,2013-09-11 06:53:00,
2013-09-11 01:58:00,77.9,65.1,28.58,East,90,1.0,1.0,65,0.00,,,0.00,meteohub,2013-09-11 06:58:00,
2013-09-11 02:03:00,77.5,64.8,28.58,East,90,1.0,4.0,65,0.00,,,0.00,meteohub,2013-09-11 07:03:00,
2013-09-11 02:08:00,77.5,64.8,28.58,NE,45,1.0,4.0,65,0.00,,,0.00,meteohub,2013-09-11 07:08:00,
2013-09-11 02:13:00,77.5,64.8,28.59,NE,45,1.0,4.0,65,0.00,,,0.00,meteohub,2013-09-11 07:13:00,
2013-09-11 02:18:00,77.5,65.3,28.59,East,90,1.0,3.0,66,0.00,,,0.00,meteohub,2013-09-11 07:18:00,
2013-09-11 02:23:00,77.2,64.9,28.59,East,90,1.0,1.0,66,0.00,,,0.00,meteohub,2013-09-11 07:23:00,
2013-09-11 02:28:00,77.0,65.1,28.59,East,90,1.0,1.0,67,0.00,,,0.00,meteohub,2013-09-11 07:28:00,
2013-09-11 02:33:00,76.8,64.9,28.59,NE,45,1.0,2.0,67,0.00,,,0.00,meteohub,2013-09-11 07:33:00,
2013-09-11 02:38:00,76.8,65.5,28.59,North,0,1.0,2.0,68,0.00,,,0.00,meteohub,2013-09-11 07:38:00,
2013-09-11 02:43:00,76.8,65.5,28.59,East,90,1.0,4.0,68,0.00,,,0.00,meteohub,2013-09-11 07:43:00,
2013-09-11 02:48:00,76.6,65.3,28.59,SE,135,2.0,4.0,68,0.00,,,0.00,meteohub,2013-09-11 07:48:00,
2013-09-11 02:53:00,76.3,64.9,28.59,East,90,4.0,6.0,68,0.00,,,0.00,meteohub,2013-09-11 07:53:00,
2013-09-11 02:58:00,76.5,65.1,28.59,East,90,1.0,6.0,68,0.00,,,0.00,meteohub,2013-09-11 07:58:00,
2013-09-11 03:03:00,76.5,65.1,28.59,East,90,1.0,6.0,68,0.00,,,0.00,meteohub,2013-09-11 08:03:00,
2013-09-11 03:08:00,76.1,64.8,28.59,East,90,1.0,6.0,68,0.00,,,0.00,meteohub,2013-09-11 08:08:00,
2013-09-11 03:13:00,76.5,65.1,28.59,East,90,1.0,5.0,68,0.00,,,0.00,meteohub,2013-09-11 08:13:00,
2013-09-11 03:18:00,76.1,64.8,28.59,East,90,1.0,2.0,68,0.00,,,0.00,meteohub,2013-09-11 08:18:00,
2013-09-11 03:23:00,75.9,64.6,28.59,East,90,1.0,2.0,68,0.00,,,0.00,meteohub,2013-09-11 08:23:00,
2013-09-11 03:28:00,75.7,64.8,28.59,East,90,1.0,2.0,69,0.00,,,0.00,meteohub,2013-09-11 08:28:00,
2013-09-11 03:33:00,75.9,64.9,28.59,East,90,4.0,4.0,69,0.00,,,0.00,meteohub,2013-09-11 08:33:00,
2013-09-11 03:38:00,75.6,64.8,28.59,NE,45,1.0,7.0,69,0.00,,,0.00,meteohub,2013-09-11 08:38:00,
2013-09-11 03:43:00,75.4,64.9,28.59,SE,135,3.0,7.0,70,0.00,,,0.00,meteohub,2013-09-11 08:43:00,
2013-09-11 03:48:00,75.2,64.8,28.59,East,90,1.0,7.0,70,0.00,,,0.00,meteohub,2013-09-11 08:48:00,
2013-09-11 03:53:00,75.2,65.1,28.59,East,90,1.0,4.0,71,0.00,,,0.00,meteohub,2013-09-11 08:53:00,
2013-09-11 03:58:00,75.4,65.3,28.59,East,90,1.0,4.0,71,0.00,,,0.00,meteohub,2013-09-11 08:58:00,
2013-09-11 04:03:00,75.0,64.9,28.59,East,90,1.0,4.0,71,0.00,,,0.00,meteohub,2013-09-11 09:03:00,
2013-09-11 04:08:00,74.8,64.8,28.58,East,90,1.0,4.0,71,0.00,,,0.00,meteohub,2013-09-11 09:08:00,
2013-09-11 04:13:00,74.5,64.9,28.58,East,90,1.0,2.0,72,0.00,,,0.00,meteohub,2013-09-11 09:13:00,
2013-09-11 04:18:00,74.5,64.9,28.58,SE,135,1.0,2.0,72,0.00,,,0.00,meteohub,2013-09-11 09:18:00,
2013-09-11 04:23:00,74.5,64.9,28.58,East,90,1.0,2.0,72,0.00,,,0.00,meteohub,2013-09-11 09:23:00,
2013-09-11 04:29:00,74.5,65.3,28.58,East,90,1.0,2.0,73,0.00,,,0.00,meteohub,2013-09-11 09:29:00,
2013-09-11 04:34:00,74.5,65.3,28.58,East,90,1.0,1.0,73,0.00,,,0.00,meteohub,2013-09-11 09:34:00,
2013-09-11 04:39:00,74.3,65.1,28.59,East,90,1.0,1.0,73,0.00,,,0.00,meteohub,2013-09-11 09:39:00,
2013-09-11 04:44:00,74.3,65.1,28.59,East,90,1.0,1.0,73,0.00,,,0.00,meteohub,2013-09-11 09:44:00,
2013-09-11 04:49:00,74.1,64.9,28.59,NE,45,1.0,1.0,73,0.00,,,0.00,meteohub,2013-09-11 09:49:00,
2013-09-11 04:54:00,74.1,64.9,28.59,East,90,1.0,1.0,73,0.00,,,0.00,meteohub,2013-09-11 09:54:00,
2013-09-11 04:59:00,73.9,65.1,28.58,ESE,113,1.0,1.0,74,0.00,,,0.00,meteohub,2013-09-11 09:59:00,
2013-09-11 05:04:00,73.9,65.1,28.58,East,90,1.0,1.0,74,0.00,,,0.00,meteohub,2013-09-11 10:04:00,
2013-09-11 05:09:00,73.8,64.9,28.59,East,90,4.0,4.0,74,0.00,,,0.00,meteohub,2013-09-11 10:09:00,
2013-09-11 05:14:00,73.8,65.3,28.58,East,90,5.0,6.0,75,0.00,,,0.00,meteohub,2013-09-11 10:14:00,
2013-09-11 05:19:00,73.6,65.1,28.58,East,90,7.0,7.0,75,0.00,,,0.00,meteohub,2013-09-11 10:19:00,
2013-09-11 05:24:00,73.8,65.3,28.59,East,90,4.0,7.0,75,0.00,,,0.00,meteohub,2013-09-11 10:24:00,
2013-09-11 05:29:00,73.8,65.3,28.59,East,90,5.0,7.0,75,0.00,,,0.00,meteohub,2013-09-11 10:29:00,
2013-09-11 05:34:00,73.4,64.9,28.59,NE,45,4.0,7.0,75,0.00,,,0.00,meteohub,2013-09-11 10:34:00,
2013-09-11 05:39:00,73.4,65.3,28.59,ESE,113,4.0,6.0,76,0.00,,,0.00,meteohub,2013-09-11 10:39:00,
2013-09-11 05:44:00,73.2,65.1,28.59,East,90,6.0,6.0,76,0.00,,,0.00,meteohub,2013-09-11 10:44:00,
2013-09-11 05:49:00,73.2,65.1,28.59,East,90,2.0,7.0,76,0.00,,,0.00,meteohub,2013-09-11 10:49:00,
2013-09-11 05:54:00,72.9,65.3,28.60,East,90,1.0,7.0,77,0.00,,,0.00,meteohub,2013-09-11 10:54:00,
2013-09-11 05:59:00,72.9,65.3,28.59,East,90,5.0,7.0,77,0.00,,,0.00,meteohub,2013-09-11 10:59:00,
2013-09-11 06:04:00,73.0,65.5,28.60,NE,45,1.0,5.0,77,0.00,,,0.00,meteohub,2013-09-11 11:04:00,
2013-09-11 06:09:00,72.7,65.1,28.60,East,90,1.0,6.0,77,0.00,,,0.00,meteohub,2013-09-11 11:09:00,
2013-09-11 06:14:00,73.0,65.5,28.60,SE,135,1.0,7.0,77,0.00,,,0.00,meteohub,2013-09-11 11:14:00,
2013-09-11 06:19:00,72.9,65.3,28.60,East,90,8.0,8.0,77,0.00,,,0.00,meteohub,2013-09-11 11:19:00,
2013-09-11 06:24:00,73.0,65.8,28.61,South,180,5.0,5.0,78,0.00,,,0.00,meteohub,2013-09-11 11:24:00,
2013-09-11 06:29:00,73.0,65.8,28.60,East,90,1.0,8.0,78,0.00,,,0.00,meteohub,2013-09-11 11:29:00,
2013-09-11 06:34:00,73.2,66.0,28.61,South,180,2.0,8.0,78,0.00,,,0.00,meteohub,2013-09-11 11:34:00,
2013-09-11 06:39:00,73.4,65.7,28.61,East,90,1.0,6.0,77,0.00,,,0.00,meteohub,2013-09-11 11:39:00,
2013-09-11 06:45:00,73.6,65.8,28.61,South,180,3.0,5.0,77,0.00,,,0.00,meteohub,2013-09-11 11:45:00,
2013-09-11 06:50:00,73.4,65.7,28.61,East,90,4.0,5.0,77,0.00,,,0.00,meteohub,2013-09-11 11:50:00,
2013-09-11 06:55:00,73.2,65.7,28.61,East,90,1.0,7.0,77,0.00,,,0.00,meteohub,2013-09-11 11:55:00,
2013-09-11 07:00:00,73.2,66.0,28.61,East,90,7.0,7.0,78,0.00,,,0.00,meteohub,2013-09-11 12:00:00,
2013-09-11 07:05:00,73.2,66.0,28.61,East,90,4.0,7.0,78,0.00,,,0.00,meteohub,2013-09-11 12:05:00,
2013-09-11 07:10:00,73.0,65.8,28.61,East,90,1.0,7.0,78,0.00,,,0.00,meteohub,2013-09-11 12:10:00,
2013-09-11 07:15:00,72.9,65.7,28.61,East,90,1.0,7.0,78,0.00,,,0.00,meteohub,2013-09-11 12:15:00,
2013-09-11 07:20:00,72.7,65.8,28.62,East,90,1.0,4.0,79,0.00,,,0.00,meteohub,2013-09-11 12:20:00,
2013-09-11 07:25:00,72.7,65.8,28.62,East,90,1.0,1.0,79,0.00,,,0.00,meteohub,2013-09-11 12:25:00,
2013-09-11 07:30:00,72.7,65.8,28.62,East,90,1.0,1.0,79,0.00,,,0.00,meteohub,2013-09-11 12:30:00,
2013-09-11 07:35:00,73.0,66.2,28.62,East,90,1.0,1.0,79,0.00,,,0.00,meteohub,2013-09-11 12:35:00,
2013-09-11 07:40:00,73.0,66.2,28.62,South,180,1.0,2.0,79,0.00,,,0.00,meteohub,2013-09-11 12:40:00,
2013-09-11 07:45:00,73.2,66.4,28.62,East,90,1.0,2.0,79,0.00,,,0.00,meteohub,2013-09-11 12:45:00,
2013-09-11 07:50:00,73.8,66.4,28.62,East,90,1.0,1.0,78,0.00,,,0.00,meteohub,2013-09-11 12:50:00,
2013-09-11 07:55:00,73.9,66.6,28.62,SE,135,1.0,2.0,78,0.00,,,0.00,meteohub,2013-09-11 12:55:00,
2013-09-11 08:00:00,74.7,66.9,28.63,East,90,1.0,2.0,77,0.00,,,0.00,meteohub,2013-09-11 13:00:00,
2013-09-11 08:05:00,75.0,67.3,28.63,East,90,1.0,2.0,77,0.00,,,0.00,meteohub,2013-09-11 13:05:00,
2013-09-11 08:10:00,75.0,66.9,28.63,East,90,1.0,2.0,76,0.00,,,0.00,meteohub,2013-09-11 13:10:00,
2013-09-11 08:15:00,75.4,67.3,28.63,East,90,1.0,1.0,76,0.00,,,0.00,meteohub,2013-09-11 13:15:00,
2013-09-11 08:21:00,75.7,67.3,28.63,East,90,1.0,2.0,75,0.00,,,0.00,meteohub,2013-09-11 13:21:00,
2013-09-11 08:26:00,75.9,67.5,28.63,SE,135,1.0,2.0,75,0.00,,,0.00,meteohub,2013-09-11 13:26:00,
2013-09-11 08:31:00,75.9,67.1,28.63,East,90,1.0,4.0,74,0.00,,,0.00,meteohub,2013-09-11 13:31:00,
2013-09-11 08:36:00,75.9,67.1,28.64,East,90,1.0,4.0,74,0.00,,,0.00,meteohub,2013-09-11 13:36:00,
2013-09-11 08:41:00,75.9,67.1,28.64,East,90,1.0,1.0,74,0.00,,,0.00,meteohub,2013-09-11 13:41:00,
2013-09-11 08:46:00,75.9,67.5,28.63,East,90,1.0,2.0,75,0.00,,,0.00,meteohub,2013-09-11 13:46:00,
2013-09-11 08:51:00,75.9,67.5,28.64,SE,135,1.0,2.0,75,0.00,,,0.00,meteohub,2013-09-11 13:51:00,
2013-09-11 08:56:00,75.9,67.5,28.64,East,90,1.0,2.0,75,0.00,,,0.00,meteohub,2013-09-11 13:56:00,
2013-09-11 09:01:00,76.1,67.6,28.64,SE,135,1.0,2.0,75,0.00,,,0.00,meteohub,2013-09-11 14:01:00,
2013-09-11 09:06:00,76.3,67.8,28.64,East,90,1.0,2.0,75,0.00,,,0.00,meteohub,2013-09-11 14:06:00,
2013-09-11 09:11:00,76.6,67.6,28.64,East,90,1.0,2.0,74,0.00,,,0.00,meteohub,2013-09-11 14:11:00,
2013-09-11 09:16:00,77.0,68.0,28.64,SW,225,4.0,4.0,74,0.00,,,0.00,meteohub,2013-09-11 14:16:00,
2013-09-11 09:21:00,77.4,68.4,28.64,South,180,1.0,4.0,74,0.00,,,0.00,meteohub,2013-09-11 14:21:00,
2013-09-11 09:26:00,77.9,68.5,28.64,SE,135,1.0,4.0,73,0.00,,,0.00,meteohub,2013-09-11 14:26:00,
2013-09-11 09:31:00,78.1,68.4,28.64,East,90,4.0,6.0,72,0.00,,,0.00,meteohub,2013-09-11 14:31:00,
2013-09-11 09:36:00,79.0,68.4,28.64,SSE,158,2.0,6.0,70,0.00,,,0.00,meteohub,2013-09-11 14:36:00,
2013-09-11 09:41:00,79.2,68.2,28.64,South,180,1.0,6.0,69,0.00,,,0.00,meteohub,2013-09-11 14:41:00,
2013-09-11 09:46:00,79.2,68.2,28.65,NE,45,1.0,7.0,69,0.00,,,0.00,meteohub,2013-09-11 14:46:00,
2013-09-11 09:51:00,80.6,69.1,28.65,East,90,4.0,7.0,68,0.00,,,0.00,meteohub,2013-09-11 14:51:00,
2013-09-11 09:57:00,81.5,68.5,28.65,East,90,4.0,6.0,65,0.00,,,0.00,meteohub,2013-09-11 14:57:00,
2013-09-11 10:02:00,82.2,68.4,28.64,SSW,203,2.0,6.0,63,0.00,,,0.00,meteohub,2013-09-11 15:02:00,
2013-09-11 10:07:00,82.6,68.2,28.65,SE,135,6.0,6.0,62,0.00,,,0.00,meteohub,2013-09-11 15:07:00,
2013-09-11 10:12:00,82.4,68.0,28.65,South,180,1.0,8.0,62,0.00,,,0.00,meteohub,2013-09-11 15:12:00,
2013-09-11 10:17:00,82.4,68.0,28.65,SE,135,1.0,8.0,62,0.00,,,0.00,meteohub,2013-09-11 15:17:00,
2013-09-11 10:22:00,82.9,67.6,28.65,SE,135,4.0,8.0,60,0.00,,,0.00,meteohub,2013-09-11 15:22:00,
2013-09-11 10:27:00,83.5,67.6,28.65,SW,225,5.0,7.0,59,0.00,,,0.00,meteohub,2013-09-11 15:27:00,
2013-09-11 10:32:00,83.7,67.8,28.65,SE,135,2.0,8.0,59,0.00,,,0.00,meteohub,2013-09-11 15:32:00,
2013-09-11 10:37:00,84.6,68.2,28.65,SE,135,1.0,8.0,58,0.00,,,0.00,meteohub,2013-09-11 15:37:00,
2013-09-11 10:42:00,84.4,68.0,28.65,East,90,3.0,8.0,58,0.00,,,0.00,meteohub,2013-09-11 15:42:00,
2013-09-11 10:47:00,84.9,68.0,28.65,NE,45,3.0,8.0,57,0.00,,,0.00,meteohub,2013-09-11 15:47:00,
2013-09-11 10:52:00,85.6,67.6,28.65,SE,135,6.0,10.0,55,0.00,,,0.00,meteohub,2013-09-11 15:52:00,
2013-09-11 10:57:00,86.0,68.0,28.65,South,180,2.0,10.0,55,0.00,,,0.00,meteohub,2013-09-11 15:57:00,
2013-09-11 11:02:00,86.4,67.8,28.65,SE,135,6.0,7.0,54,0.00,,,0.00,meteohub,2013-09-11 16:02:00,
2013-09-11 11:07:00,86.4,67.3,28.65,SSE,158,8.0,10.0,53,0.00,,,0.00,meteohub,2013-09-11 16:07:00,
2013-09-11 11:12:00,86.5,67.5,28.64,South,180,1.0,10.0,53,0.00,,,0.00,meteohub,2013-09-11 16:12:00,
2013-09-11 11:17:00,87.1,66.7,28.64,SE,135,1.0,10.0,51,0.00,,,0.00,meteohub,2013-09-11 16:17:00,
2013-09-11 11:22:00,87.3,66.4,28.65,South,180,8.0,9.0,50,0.00,,,0.00,meteohub,2013-09-11 16:22:00,
2013-09-11 11:27:00,87.1,66.7,28.65,South,180,6.0,8.0,51,0.00,,,0.00,meteohub,2013-09-11 16:27:00,
2013-09-11 11:32:00,88.0,66.4,28.64,East,90,4.0,10.0,49,0.00,,,0.00,meteohub,2013-09-11 16:32:00,
2013-09-11 11:37:00,88.7,65.8,28.64,SE,135,8.0,10.0,47,0.00,,,0.00,meteohub,2013-09-11 16:37:00,
2013-09-11 11:42:00,88.3,65.5,28.64,West,270,7.0,10.0,47,0.00,,,0.00,meteohub,2013-09-11 16:42:00,
2013-09-11 11:47:00,88.2,65.3,28.64,SE,135,6.0,15.0,47,0.00,,,0.00,meteohub,2013-09-11 16:47:00,
2013-09-11 11:52:00,89.6,65.5,28.64,East,90,9.0,15.0,45,0.00,,,0.00,meteohub,2013-09-11 16:52:00,
2013-09-11 11:57:00,89.4,65.3,28.64,East,90,4.0,12.0,45,0.00,,,0.00,meteohub,2013-09-11 16:57:00,
2013-09-11 12:02:00,89.6,65.5,28.64,SSE,158,8.0,14.0,45,0.00,,,0.00,meteohub,2013-09-11 17:02:00,
2013-09-11 12:07:00,89.8,64.2,28.63,SE,135,8.0,14.0,43,0.00,,,0.00,meteohub,2013-09-11 17:07:00,
2013-09-11 12:12:00,89.4,64.0,28.63,East,90,8.0,14.0,43,0.00,,,0.00,meteohub,2013-09-11 17:12:00,
2013-09-11 12:17:00,87.8,65.1,28.63,South,180,5.0,9.0,47,0.00,,,0.00,meteohub,2013-09-11 17:17:00,
2013-09-11 12:22:00,88.5,65.1,28.63,South,180,9.0,12.0,46,0.00,,,0.00,meteohub,2013-09-11 17:22:00,
2013-09-11 12:27:00,88.3,65.5,28.63,SE,135,3.0,12.0,47,0.00,,,0.00,meteohub,2013-09-11 17:27:00,
2013-09-11 12:32:00,89.6,64.8,28.63,East,90,8.0,12.0,44,0.00,,,0.00,meteohub,2013-09-11 17:32:00,
2013-09-11 12:37:00,89.6,65.5,28.63,South,180,4.0,11.0,45,0.00,,,0.00,meteohub,2013-09-11 17:37:00,
2013-09-11 12:42:00,89.4,63.3,28.62,SSE,158,11.0,11.0,42,0.00,,,0.00,meteohub,2013-09-11 17:42:00,
2013-09-11 12:47:00,88.9,64.8,28.62,SSE,158,11.0,13.0,45,0.00,,,0.00,meteohub,2013-09-11 17:47:00,
2013-09-11 12:52:00,88.9,64.2,28.63,East,90,8.0,13.0,44,0.00,,,0.00,meteohub,2013-09-11 17:52:00,
2013-09-11 12:57:00,88.5,64.4,28.63,NE,45,4.0,13.0,45,0.00,,,0.00,meteohub,2013-09-11 17:57:00,
2013-09-11 13:02:00,89.4,64.6,28.63,SE,135,11.0,11.0,44,0.00,,,0.00,meteohub,2013-09-11 18:02:00,
2013-09-11 13:07:00,89.2,63.9,28.62,South,180,7.0,11.0,43,0.00,,,0.00,meteohub,2013-09-11 18:07:00,
2013-09-11 13:12:00,90.9,63.9,28.61,South,180,2.0,11.0,41,0.00,,,0.00,meteohub,2013-09-11 18:12:00,
2013-09-11 13:17:00,90.1,63.3,28.62,SE,135,8.0,11.0,41,0.00,,,0.00,meteohub,2013-09-11 18:17:00,
2013-09-11 13:22:00,89.8,63.7,28.61,SE,135,7.0,11.0,42,0.00,,,0.00,meteohub,2013-09-11 18:22:00,
2013-09-11 13:27:00,90.5,62.2,28.61,SE,135,9.0,11.0,39,0.00,,,0.00,meteohub,2013-09-11 18:27:00,
2013-09-11 13:32:00,90.5,63.0,28.61,NE,45,9.0,10.0,40,0.00,,,0.00,meteohub,2013-09-11 18:32:00,
2013-09-11 13:37:00,91.2,63.5,28.61,NW,315,10.0,10.0,40,0.00,,,0.00,meteohub,2013-09-11 18:37:00,
2013-09-11 13:42:00,92.5,61.7,28.60,SW,225,13.0,13.0,36,0.00,,,0.00,meteohub,2013-09-11 18:42:00,
2013-09-11 13:47:00,92.8,63.5,28.61,East,90,8.0,16.0,38,0.00,,,0.00,meteohub,2013-09-11 18:47:00,
2013-09-11 13:52:00,92.8,62.8,28.60,East,90,4.0,16.0,37,0.00,,,0.00,meteohub,2013-09-11 18:52:00,
2013-09-11 13:58:00,92.7,61.9,28.60,North,0,7.0,16.0,36,0.00,,,0.00,meteohub,2013-09-11 18:58:00,
2013-09-11 14:02:00,92.7,60.3,28.60,South,180,5.0,12.0,34,0.00,,,0.00,meteohub,2013-09-11 19:02:00,
2013-09-11 14:07:00,93.9,62.1,28.60,SE,135,8.0,15.0,35,0.00,,,0.00,meteohub,2013-09-11 19:07:00,
2013-09-11 14:13:00,92.1,60.4,28.59,South,180,7.0,15.0,35,0.00,,,0.00,meteohub,2013-09-11 19:13:00,
2013-09-11 14:18:00,92.1,62.1,28.59,East,90,8.0,14.0,37,0.00,,,0.00,meteohub,2013-09-11 19:18:00,
2013-09-11 14:23:00,92.1,60.4,28.59,SE,135,6.0,14.0,35,0.00,,,0.00,meteohub,2013-09-11 19:23:00,
2013-09-11 14:28:00,91.9,61.9,28.59,NE,45,7.0,12.0,37,0.00,,,0.00,meteohub,2013-09-11 19:28:00,
2013-09-11 14:33:00,91.6,61.7,28.59,SE,135,2.0,12.0,37,0.00,,,0.00,meteohub,2013-09-11 19:33:00,
2013-09-11 14:38:00,91.2,62.1,28.59,SE,135,8.0,11.0,38,0.00,,,0.00,meteohub,2013-09-11 19:38:00,
2013-09-11 14:43:00,90.5,60.6,28.58,East,90,6.0,11.0,37,0.00,,,0.00,meteohub,2013-09-11 19:43:00,
2013-09-11 14:48:00,91.6,63.1,28.58,North,0,2.0,11.0,39,0.00,,,0.00,meteohub,2013-09-11 19:48:00,
2013-09-11 14:53:00,94.3,60.8,28.58,SW,225,2.0,10.0,33,0.00,,,0.00,meteohub,2013-09-11 19:53:00,
2013-09-11 14:58:00,94.3,59.9,28.58,SE,135,6.0,10.0,32,0.00,,,0.00,meteohub,2013-09-11 19:58:00,
2013-09-11 15:03:00,92.8,60.3,28.57,South,180,7.0,12.0,34,0.00,,,0.00,meteohub,2013-09-11 20:03:00,
2013-09-11 15:08:00,92.3,60.6,28.57,SE,135,1.0,12.0,35,0.00,,,0.00,meteohub,2013-09-11 20:08:00,
2013-09-11 15:13:00,92.1,61.3,28.57,SE,135,5.0,12.0,36,0.00,,,0.00,meteohub,2013-09-11 20:13:00,
2013-09-11 15:18:00,92.7,62.6,28.56,East,90,1.0,8.0,37,0.00,,,0.00,meteohub,2013-09-11 20:18:00,
2013-09-11 15:23:00,94.1,59.7,28.57,NE,45,8.0,8.0,32,0.00,,,0.00,meteohub,2013-09-11 20:23:00,
2013-09-11 15:28:00,93.0,60.4,28.57,East,90,4.0,15.0,34,0.00,,,0.00,meteohub,2013-09-11 20:28:00,
2013-09-11 15:33:00,92.3,60.6,28.56,East,90,8.0,15.0,35,0.00,,,0.00,meteohub,2013-09-11 20:33:00,
2013-09-11 15:38:00,91.2,59.7,28.57,East,90,7.0,12.0,35,0.00,,,0.00,meteohub,2013-09-11 20:38:00,
2013-09-11 15:43:00,91.6,60.8,28.56,South,180,6.0,14.0,36,0.00,,,0.00,meteohub,2013-09-11 20:43:00,
2013-09-11 15:48:00,92.1,60.4,28.56,East,90,5.0,14.0,35,0.00,,,0.00,meteohub,2013-09-11 20:48:00,
2013-09-11 15:53:00,92.3,59.9,28.56,NW,315,8.0,14.0,34,0.00,,,0.00,meteohub,2013-09-11 20:53:00,
2013-09-11 15:58:00,93.0,57.9,28.55,NE,45,8.0,12.0,31,0.00,,,0.00,meteohub,2013-09-11 20:58:00,
2013-09-11 16:03:00,94.3,58.1,28.55,East,90,8.0,12.0,30,0.00,,,0.00,meteohub,2013-09-11 21:03:00,
2013-09-11 16:08:00,94.8,57.6,28.54,North,0,6.0,11.0,29,0.00,,,0.00,meteohub,2013-09-11 21:08:00,
2013-09-11 16:13:00,95.2,57.9,28.54,SSW,203,11.0,11.0,29,0.00,,,0.00,meteohub,2013-09-11 21:13:00,
2013-09-11 16:18:00,95.0,55.8,28.54,East,90,3.0,17.0,27,0.00,,,0.00,meteohub,2013-09-11 21:18:00,
2013-09-11 16:23:00,95.2,54.9,28.54,East,90,8.0,17.0,26,0.00,,,0.00,meteohub,2013-09-11 21:23:00,
2013-09-11 16:28:00,95.2,55.9,28.54,NE,45,6.0,17.0,27,0.00,,,0.00,meteohub,2013-09-11 21:28:00,
2013-09-11 16:33:00,95.5,55.2,28.54,East,90,8.0,15.0,26,0.00,,,0.00,meteohub,2013-09-11 21:33:00,
2013-09-11 16:38:00,94.8,55.6,28.53,South,180,8.0,15.0,27,0.00,,,0.00,meteohub,2013-09-11 21:38:00,
2013-09-11 16:43:00,95.5,55.2,28.53,NW,315,2.0,12.0,26,0.00,,,0.00,meteohub,2013-09-11 21:43:00,
2013-09-11 16:48:00,95.4,54.0,28.53,South,180,7.0,12.0,25,0.00,,,0.00,meteohub,2013-09-11 21:48:00,
2013-09-11 16:53:00,94.6,54.5,28.53,East,90,7.0,11.0,26,0.00,,,0.00,meteohub,2013-09-11 21:53:00,
2013-09-11 16:58:00,95.2,54.9,28.53,East,90,7.0,11.0,26,0.00,,,0.00,meteohub,2013-09-11 21:58:00,
2013-09-11 17:03:00,95.5,55.2,28.53,SE,135,11.0,11.0,26,0.00,,,0.00,meteohub,2013-09-11 22:03:00,
2013-09-11 17:08:00,93.4,54.3,28.53,SE,135,7.0,13.0,27,0.00,,,0.00,meteohub,2013-09-11 22:08:00,
2013-09-11 17:14:00,92.7,54.9,28.53,East,90,4.0,13.0,28,0.00,,,0.00,meteohub,2013-09-11 22:14:00,
2013-09-11 17:19:00,94.1,55.0,28.53,NE,45,8.0,13.0,27,0.00,,,0.00,meteohub,2013-09-11 22:19:00,
2013-09-11 17:24:00,94.5,55.4,28.52,North,0,8.0,11.0,27,0.00,,,0.00,meteohub,2013-09-11 22:24:00,
2013-09-11 17:29:00,94.8,55.6,28.52,NE,45,8.0,15.0,27,0.00,,,0.00,meteohub,2013-09-11 22:29:00,
2013-09-11 17:34:00,95.4,54.0,28.52,SE,135,3.0,15.0,25,0.00,,,0.00,meteohub,2013-09-11 22:34:00,
2013-09-11 17:39:00,95.5,55.2,28.52,SE,135,5.0,15.0,26,0.00,,,0.00,meteohub,2013-09-11 22:39:00,
2013-09-11 17:44:00,95.9,54.5,28.52,SSE,158,4.0,12.0,25,0.00,,,0.00,meteohub,2013-09-11 22:44:00,
2013-09-11 17:49:00,95.7,53.2,28.52,SE,135,8.0,9.0,24,0.00,,,0.00,meteohub,2013-09-11 22:49:00,
2013-09-11 17:54:00,95.7,54.3,28.51,East,90,8.0,9.0,25,0.00,,,0.00,meteohub,2013-09-11 22:54:00,
2013-09-11 17:59:00,95.4,54.0,28.51,South,180,9.0,9.0,25,0.00,,,0.00,meteohub,2013-09-11 22:59:00,
2013-09-11 18:04:00,95.7,54.3,28.51,NE,45,7.0,9.0,25,0.00,,,0.00,meteohub,2013-09-11 23:04:00,
2013-09-11 18:09:00,95.7,52.0,28.51,NE,45,6.0,9.0,23,0.00,,,0.00,meteohub,2013-09-11 23:09:00,
2013-09-11 18:14:00,95.7,50.7,28.51,South,180,6.0,9.0,22,0.00,,,0.00,meteohub,2013-09-11 23:14:00,
2013-09-11 18:19:00,95.2,50.4,28.51,SE,135,10.0,10.0,22,0.00,,,0.00,meteohub,2013-09-11 23:19:00,
2013-09-11 18:24:00,94.6,51.1,28.51,East,90,9.0,11.0,23,0.00,,,0.00,meteohub,2013-09-11 23:24:00,
2013-09-11 18:29:00,94.6,51.1,28.51,SE,135,11.0,11.0,23,0.00,,,0.00,meteohub,2013-09-11 23:29:00,
2013-09-11 18:34:00,94.3,52.0,28.51,ESE,113,7.0,11.0,24,0.00,,,0.00,meteohub,2013-09-11 23:34:00,
2013-09-11 18:39:00,94.3,52.0,28.51,SSE,158,4.0,11.0,24,0.00,,,0.00,meteohub,2013-09-11 23:39:00,
2013-09-11 18:44:00,93.9,51.6,28.51,SSE,158,6.0,11.0,24,0.00,,,0.00,meteohub,2013-09-11 23:44:00,
2013-09-11 18:49:00,93.6,51.3,28.51,SE,135,6.0,9.0,24,0.00,,,0.00,meteohub,2013-09-11 23:49:00,
2013-09-11 18:54:00,93.2,52.2,28.51,SE,135,6.0,11.0,25,0.00,,,0.00,meteohub,2013-09-11 23:54:00,
2013-09-11 18:59:00,92.5,52.5,28.51,East,90,8.0,11.0,26,0.00,,,0.00,meteohub,2013-09-11 23:59:00,
2013-09-11 19:04:00,92.1,52.3,28.51,East,90,4.0,11.0,26,0.00,,,0.00,meteohub,2013-09-12 00:04:00,
2013-09-11 19:09:00,91.4,52.7,28.51,SE,135,3.0,8.0,27,0.00,,,0.00,meteohub,2013-09-12 00:09:00,
2013-09-11 19:14:00,91.0,53.4,28.51,East,90,4.0,8.0,28,0.00,,,0.00,meteohub,2013-09-12 00:14:00,
2013-09-11 19:19:00,90.7,54.1,28.51,SE,135,6.0,8.0,29,0.00,,,0.00,meteohub,2013-09-12 00:19:00,
2013-09-11 19:24:00,90.3,53.8,28.51,East,90,4.0,8.0,29,0.00,,,0.00,meteohub,2013-09-12 00:24:00,
2013-09-11 19:29:00,90.1,53.6,28.51,South,180,4.0,9.0,29,0.00,,,0.00,meteohub,2013-09-12 00:29:00,
2013-09-11 19:34:00,90.1,54.5,28.52,ESE,113,2.0,9.0,30,0.00,,,0.00,meteohub,2013-09-12 00:34:00,
2013-09-11 19:39:00,89.4,54.0,28.52,South,180,1.0,9.0,30,0.00,,,0.00,meteohub,2013-09-12 00:39:00,
2013-09-11 19:44:00,89.2,54.7,28.52,East,90,2.0,4.0,31,0.00,,,0.00,meteohub,2013-09-12 00:44:00,
2013-09-11 19:49:00,88.7,54.1,28.53,SW,225,1.0,4.0,31,0.00,,,0.00,meteohub,2013-09-12 00:49:00,
2013-09-11 19:54:00,88.3,53.8,28.52,SW,225,1.0,3.0,31,0.00,,,0.00,meteohub,2013-09-12 00:54:00,
2013-09-11 19:59:00,88.2,54.5,28.53,East,90,1.0,3.0,32,0.00,,,0.00,meteohub,2013-09-12 00:59:00,
2013-09-11 20:05:00,88.0,55.2,28.53,ENE,68,1.0,1.0,33,0.00,,,0.00,meteohub,2013-09-12 01:05:00,
2013-09-11 20:10:00,87.6,55.0,28.53,SSE,158,1.0,1.0,33,0.00,,,0.00,meteohub,2013-09-12 01:10:00,
2013-09-11 20:15:00,87.4,55.6,28.53,South,180,1.0,1.0,34,0.00,,,0.00,meteohub,2013-09-12 01:15:00,
2013-09-11 20:20:00,87.1,55.2,28.53,SE,135,1.0,1.0,34,0.00,,,0.00,meteohub,2013-09-12 01:20:00,
2013-09-11 20:25:00,86.9,55.9,28.53,SE,135,1.0,1.0,35,0.00,,,0.00,meteohub,2013-09-12 01:25:00,
2013-09-11 20:30:00,86.7,55.8,28.54,SE,135,1.0,2.0,35,0.00,,,0.00,meteohub,2013-09-12 01:30:00,
2013-09-11 20:35:00,86.4,56.3,28.54,South,180,1.0,2.0,36,0.00,,,0.00,meteohub,2013-09-12 01:35:00,
2013-09-11 20:40:00,86.2,56.1,28.54,SE,135,1.0,1.0,36,0.00,,,0.00,meteohub,2013-09-12 01:40:00,
2013-09-11 20:45:00,85.8,56.5,28.54,South,180,0.0,2.0,37,0.00,,,0.00,meteohub,2013-09-12 01:45:00,
2013-09-11 20:50:00,85.6,56.3,28.54,SSE,158,1.0,2.0,37,0.00,,,0.00,meteohub,2013-09-12 01:50:00,
2013-09-11 20:55:00,85.1,56.7,28.54,SE,135,1.0,2.0,38,0.00,,,0.00,meteohub,2013-09-12 01:55:00,
2013-09-11 21:00:00,84.7,56.3,28.55,SE,135,1.0,1.0,38,0.00,,,0.00,meteohub,2013-09-12 02:00:00,
2013-09-11 21:05:00,84.2,56.5,28.55,South,180,1.0,1.0,39,0.00,,,0.00,meteohub,2013-09-12 02:05:00,
2013-09-11 21:10:00,84.2,56.5,28.55,South,180,1.0,1.0,39,0.00,,,0.00,meteohub,2013-09-12 02:10:00,
2013-09-11 21:16:00,83.8,56.3,28.55,South,180,1.0,1.0,39,0.00,,,0.00,meteohub,2013-09-12 02:16:00,
2013-09-11 21:21:00,83.8,57.0,28.56,South,180,0.0,1.0,40,0.00,,,0.00,meteohub,2013-09-12 02:21:00,
2013-09-11 21:26:00,83.5,57.4,28.56,South,180,1.0,1.0,41,0.00,,,0.00,meteohub,2013-09-12 02:26:00,
2013-09-11 21:31:00,83.5,57.4,28.56,South,180,0.0,1.0,41,0.00,,,0.00,meteohub,2013-09-12 02:31:00,
2013-09-11 21:36:00,83.1,57.0,28.56,South,180,0.0,1.0,41,0.00,,,0.00,meteohub,2013-09-12 02:36:00,
2013-09-11 21:41:00,82.9,56.8,28.56,South,180,1.0,1.0,41,0.00,,,0.00,meteohub,2013-09-12 02:41:00,
2013-09-11 21:46:00,82.8,57.4,28.56,South,180,1.0,1.0,42,0.00,,,0.00,meteohub,2013-09-12 02:46:00,
2013-09-11 21:51:00,82.4,57.0,28.56,SE,135,1.0,1.0,42,0.00,,,0.00,meteohub,2013-09-12 02:51:00,
2013-09-11 21:56:00,82.8,57.4,28.56,SE,135,1.0,1.0,42,0.00,,,0.00,meteohub,2013-09-12 02:56:00,
2013-09-11 22:01:00,83.5,57.9,28.56,East,90,1.0,1.0,42,0.00,,,0.00,meteohub,2013-09-12 03:01:00,
2013-09-11 22:06:00,83.3,57.2,28.57,SE,135,1.0,1.0,41,0.00,,,0.00,meteohub,2013-09-12 03:06:00,
2013-09-11 22:11:00,83.1,57.0,28.57,SE,135,1.0,1.0,41,0.00,,,0.00,meteohub,2013-09-12 03:11:00,
2013-09-11 22:16:00,83.1,57.6,28.57,SE,135,0.0,1.0,42,0.00,,,0.00,meteohub,2013-09-12 03:16:00,
2013-09-11 22:21:00,82.6,57.2,28.57,SE,135,0.0,1.0,42,0.00,,,0.00,meteohub,2013-09-12 03:21:00,
2013-09-11 22:26:00,82.2,57.6,28.57,SE,135,0.0,1.0,43,0.00,,,0.00,meteohub,2013-09-12 03:26:00,
2013-09-11 22:31:00,81.9,57.2,28.57,SE,135,1.0,1.0,43,0.00,,,0.00,meteohub,2013-09-12 03:31:00,
2013-09-11 22:36:00,81.9,57.7,28.57,East,90,1.0,1.0,44,0.00,,,0.00,meteohub,2013-09-12 03:36:00,
2013-09-11 22:41:00,81.5,57.6,28.57,East,90,0.0,1.0,44,0.00,,,0.00,meteohub,2013-09-12 03:41:00,
2013-09-11 22:46:00,81.1,57.7,28.56,East,90,1.0,1.0,45,0.00,,,0.00,meteohub,2013-09-12 03:46:00,
2013-09-11 22:51:00,81.0,57.6,28.57,East,90,0.0,1.0,45,0.00,,,0.00,meteohub,2013-09-12 03:51:00,
2013-09-11 22:56:00,80.6,57.9,28.57,SE,135,0.0,1.0,46,0.00,,,0.00,meteohub,2013-09-12 03:56:00,
2013-09-11 23:01:00,80.4,57.7,28.57,SE,135,0.0,1.0,46,0.00,,,0.00,meteohub,2013-09-12 04:01:00,
2013-09-11 23:02:00,80.2,57.6,28.57,SE,135,0.0,1.0,46,0.00,,,0.00,meteohub,2013-09-12 04:02:00,
2013-09-11 23:07:00,79.9,57.9,28.57,East,90,0.0,1.0,47,0.00,,,0.00,meteohub,2013-09-12 04:07:00,
2013-09-11 23:12:00,79.5,58.1,28.56,NE,45,0.0,1.0,48,0.00,,,0.00,meteohub,2013-09-12 04:12:00,
2013-09-11 23:17:00,79.3,58.5,28.56,NE,45,0.0,1.0,49,0.00,,,0.00,meteohub,2013-09-12 04:17:00,
2013-09-11 23:22:00,79.0,58.8,28.56,East,90,0.0,1.0,50,0.00,,,0.00,meteohub,2013-09-12 04:22:00,
2013-09-11 23:27:00,78.6,59.0,28.56,East,90,0.0,1.0,51,0.00,,,0.00,meteohub,2013-09-12 04:27:00,
2013-09-11 23:32:00,78.6,59.0,28.56,NE,45,0.0,1.0,51,0.00,,,0.00,meteohub,2013-09-12 04:32:00,
2013-09-11 23:37:00,78.3,58.6,28.56,East,90,0.0,1.0,51,0.00,,,0.00,meteohub,2013-09-12 04:37:00,
2013-09-11 23:42:00,78.3,58.6,28.56,East,90,0.0,1.0,51,0.00,,,0.00,meteohub,2013-09-12 04:42:00,
2013-09-11 23:47:00,78.3,58.1,28.56,East,90,0.0,1.0,50,0.00,,,0.00,meteohub,2013-09-12 04:47:00,
2013-09-11 23:52:00,78.3,58.1,28.56,SE,135,1.0,1.0,50,0.00,,,0.00,meteohub,2013-09-12 04:52:00,
2013-09-11 23:57:00,78.1,57.9,28.56,East,90,0.0,1.0,50,0.00,,,0.00,meteohub,2013-09-12 04:57:00,